sensor_id;sensor_type;location;lat;lon;timestamp;pressure;altitude;pressure_sealevel;temperature;humidity
24154;BME280;12312;53.362;-1.518;2023-04-23T00:02:32;97786.59;;;9.92;100.00
24154;BME280;12312;53.362;-1.518;2023-04-23T00:05:16;97786.72;;;10.00;100.00
24154;BME280;12312;53.362;-1.518;2023-04-23T00:08:01;97782.25;;;10.00;100.00
24154;BME280;12312;53.362;-1.518;2023-04-23T00:10:46;97772.03;;;9.86;100.00
24154;BME280;12312;53.362;-1.518;2023-04-23T00:13:31;97775.97;;;9.73;100.00
24154;BME280;12312;53.362;-1.518;2023-04-23T00:16:15;97760.75;;;9.65;100.00
24154;BME280;12312;53.362;-1.518;2023-04-23T00:18:59;97760.75;;;9.65;100.00
24154;BME280;12312;53.362;-1.518;2023-04-23T00:21:44;97758.94;;;9.66;100.00
24154;BME280;12312;53.362;-1.518;2023-04-23T00:24:28;97757.38;;;9.73;100.00
24154;BME280;12312;53.362;-1.518;2023-04-23T00:27:12;97760.75;;;9.75;100.00
24154;BME280;12312;53.362;-1.518;2023-04-23T00:29:56;97750.91;;;10.04;100.00
24154;BME280;12312;53.362;-1.518;2023-04-23T00:32:40;97742.22;;;10.02;100.00
24154;BME280;12312;53.362;-1.518;2023-04-23T00:35:25;97737.66;;;9.85;100.00
24154;BME280;12312;53.362;-1.518;2023-04-23T00:38:09;97739.22;;;9.78;100.00
24154;BME280;12312;53.362;-1.518;2023-04-23T00:40:53;97737.53;;;9.77;100.00
24154;BME280;12312;53.362;-1.518;2023-04-23T00:43:38;97736.13;;;9.92;100.00
24154;BME280;12312;53.362;-1.518;2023-04-23T00:46:24;97732.19;;;9.96;100.00
24154;BME280;12312;53.362;-1.518;2023-04-23T00:49:08;97730.50;;;9.95;100.00
24154;BME280;12312;53.362;-1.518;2023-04-23T00:51:52;97719.59;;;9.98;100.00
24154;BME280;12312;53.362;-1.518;2023-04-23T00:54:36;97728.81;;;10.03;100.00
24154;BME280;12312;53.362;-1.518;2023-04-23T00:57:21;97720.97;;;10.02;100.00
24154;BME280;12312;53.362;-1.518;2023-04-23T01:00:07;97714.59;;;9.85;100.00
24154;BME280;12312;53.362;-1.518;2023-04-23T01:02:51;97708.47;;;9.66;100.00
24154;BME280;12312;53.362;-1.518;2023-04-23T01:05:36;97704.81;;;9.76;100.00
24154;BME280;12312;53.362;-1.518;2023-04-23T01:08:22;97701.44;;;9.84;100.00
24154;BME280;12312;53.362;-1.518;2023-04-23T01:11:08;97704.22;;;9.92;100.00
24154;BME280;12312;53.362;-1.518;2023-04-23T01:13:52;97705.31;;;9.99;100.00
24154;BME280;12312;53.362;-1.518;2023-04-23T01:16:37;97708.13;;;10.07;100.00
24154;BME280;12312;53.362;-1.518;2023-04-23T01:19:21;97695.78;;;10.06;100.00
24154;BME280;12312;53.362;-1.518;2023-04-23T01:22:10;97692.84;;;10.09;100.00
24154;BME280;12312;53.362;-1.518;2023-04-23T01:24:54;97697.94;;;9.83;100.00
24154;BME280;12312;53.362;-1.518;2023-04-23T01:27:39;97685.22;;;9.87;100.00
24154;BME280;12312;53.362;-1.518;2023-04-23T01:30:25;97682.38;;;10.07;100.00
24154;BME280;12312;53.362;-1.518;2023-04-23T01:33:10;97682.41;;;9.88;100.00
24154;BME280;12312;53.362;-1.518;2023-04-23T01:35:55;97690.53;;;9.87;100.00
24154;BME280;12312;53.362;-1.518;2023-04-23T01:38:39;97683.75;;;10.02;100.00
24154;BME280;12312;53.362;-1.518;2023-04-23T01:41:23;97685.22;;;9.87;100.00
24154;BME280;12312;53.362;-1.518;2023-04-23T01:44:08;97688.28;;;9.92;100.00
24154;BME280;12312;53.362;-1.518;2023-04-23T01:46:52;97697.50;;;9.88;100.00
24154;BME280;12312;53.362;-1.518;2023-04-23T01:49:36;97682.28;;;9.90;100.00
24154;BME280;12312;53.362;-1.518;2023-04-23T01:52:21;97691.09;;;9.81;100.00
24154;BME280;12312;53.362;-1.518;2023-04-23T01:55:05;97684.38;;;9.86;100.00
24154;BME280;12312;53.362;-1.518;2023-04-23T01:57:49;97682.31;;;9.71;100.00
24154;BME280;12312;53.362;-1.518;2023-04-23T02:00:34;97677.13;;;9.79;100.00
24154;BME280;12312;53.362;-1.518;2023-04-23T02:03:18;97678.25;;;9.86;100.00
24154;BME280;12312;53.362;-1.518;2023-04-23T02:06:02;97675.97;;;9.91;100.00
24154;BME280;12312;53.362;-1.518;2023-04-23T02:08:47;97677.41;;;9.76;100.00
24154;BME280;12312;53.362;-1.518;2023-04-23T02:11:32;97678.09;;;9.78;100.00
24154;BME280;12312;53.362;-1.518;2023-04-23T02:14:16;97666.03;;;9.93;100.00
24154;BME280;12312;53.362;-1.518;2023-04-23T02:17:00;97663.97;;;9.77;100.00
24154;BME280;12312;53.362;-1.518;2023-04-23T02:19:45;97662.53;;;9.92;100.00
24154;BME280;12312;53.362;-1.518;2023-04-23T02:22:29;97656.00;;;9.87;100.00
24154;BME280;12312;53.362;-1.518;2023-04-23T02:25:14;97654.06;;;9.70;100.00
24154;BME280;12312;53.362;-1.518;2023-04-23T02:28:00;97656.44;;;9.73;100.00
24154;BME280;12312;53.362;-1.518;2023-04-23T02:30:48;97664.41;;;9.73;100.00
24154;BME280;12312;53.362;-1.518;2023-04-23T02:33:32;97661.19;;;9.69;100.00
24154;BME280;12312;53.362;-1.518;2023-04-23T02:36:16;97655.94;;;9.60;100.00
24154;BME280;12312;53.362;-1.518;2023-04-23T02:39:00;97653.44;;;9.49;100.00
24154;BME280;12312;53.362;-1.518;2023-04-23T02:41:44;97647.03;;;9.42;100.00
24154;BME280;12312;53.362;-1.518;2023-04-23T02:44:28;97648.56;;;9.35;100.00
24154;BME280;12312;53.362;-1.518;2023-04-23T02:47:12;97645.50;;;9.30;100.00
24154;BME280;12312;53.362;-1.518;2023-04-23T02:49:56;97644.38;;;9.13;100.00
24154;BME280;12312;53.362;-1.518;2023-04-23T02:52:41;97649.53;;;9.15;100.00
24154;BME280;12312;53.362;-1.518;2023-04-23T02:55:25;97649.53;;;9.15;100.00
24154;BME280;12312;53.362;-1.518;2023-04-23T02:58:14;97643.13;;;9.17;100.00
24154;BME280;12312;53.362;-1.518;2023-04-23T03:00:59;97646.88;;;9.15;100.00
24154;BME280;12312;53.362;-1.518;2023-04-23T03:03:43;97646.03;;;9.43;100.00
24154;BME280;12312;53.362;-1.518;2023-04-23T03:06:28;97645.78;;;9.27;100.00
24154;BME280;12312;53.362;-1.518;2023-04-23T03:09:12;97642.84;;;9.20;100.00
24154;BME280;12312;53.362;-1.518;2023-04-23T03:11:56;97638.22;;;9.22;100.00
24154;BME280;12312;53.362;-1.518;2023-04-23T03:14:40;97636.13;;;9.26;100.00
24154;BME280;12312;53.362;-1.518;2023-04-23T03:17:24;97638.13;;;9.14;100.00
24154;BME280;12312;53.362;-1.518;2023-04-23T03:20:08;97637.28;;;8.94;100.00
24154;BME280;12312;53.362;-1.518;2023-04-23T03:22:54;97635.75;;;9.01;100.00
24154;BME280;12312;53.362;-1.518;2023-04-23T03:25:38;97627.06;;;9.09;100.00
24154;BME280;12312;53.362;-1.518;2023-04-23T03:28:22;97628.47;;;9.03;100.00
24154;BME280;12312;53.362;-1.518;2023-04-23T03:31:06;97631.09;;;9.13;100.00
24154;BME280;12312;53.362;-1.518;2023-04-23T03:33:50;97633.50;;;9.07;100.00
24154;BME280;12312;53.362;-1.518;2023-04-23T03:36:34;97628.47;;;9.03;100.00
24154;BME280;12312;53.362;-1.518;2023-04-23T03:39:18;97630.28;;;8.93;100.00
24154;BME280;12312;53.362;-1.518;2023-04-23T03:42:02;97630.00;;;8.96;100.00
24154;BME280;12312;53.362;-1.518;2023-04-23T03:44:48;97635.19;;;8.88;100.00
24154;BME280;12312;53.362;-1.518;2023-04-23T03:47:32;97630.84;;;8.87;100.00
24154;BME280;12312;53.362;-1.518;2023-04-23T03:50:16;97625.53;;;8.87;100.00
24154;BME280;12312;53.362;-1.518;2023-04-23T03:53:00;97622.31;;;8.93;100.00
24154;BME280;12312;53.362;-1.518;2023-04-23T03:55:44;97635.88;;;8.90;100.00
24154;BME280;12312;53.362;-1.518;2023-04-23T03:58:28;97618.03;;;8.73;100.00
24154;BME280;12312;53.362;-1.518;2023-04-23T04:01:12;97625.13;;;8.82;100.00
24154;BME280;12312;53.362;-1.518;2023-04-23T04:03:56;97629.03;;;8.59;100.00
24154;BME280;12312;53.362;-1.518;2023-04-23T04:06:40;97625.53;;;8.68;100.00
24154;BME280;12312;53.362;-1.518;2023-04-23T04:09:25;97612.69;;;8.92;100.00
24154;BME280;12312;53.362;-1.518;2023-04-23T04:12:09;97613.81;;;8.80;100.00
24154;BME280;12312;53.362;-1.518;2023-04-23T04:14:53;97622.22;;;8.85;100.00
24154;BME280;12312;53.362;-1.518;2023-04-23T04:17:37;97609.78;;;8.95;100.00
24154;BME280;12312;53.362;-1.518;2023-04-23T04:20:21;97614.94;;;8.68;100.00
24154;BME280;12312;53.362;-1.518;2023-04-23T04:23:05;97616.31;;;8.53;100.00
24154;BME280;12312;53.362;-1.518;2023-04-23T04:25:49;97618.00;;;8.64;100.00
24154;BME280;12312;53.362;-1.518;2023-04-23T04:28:34;97612.72;;;8.73;100.00
24154;BME280;12312;53.362;-1.518;2023-04-23T04:31:20;97611.88;;;8.82;100.00
24154;BME280;12312;53.362;-1.518;2023-04-23T04:34:05;97616.63;;;8.88;100.00
24154;BME280;12312;53.362;-1.518;2023-04-23T04:36:51;97613.41;;;8.85;100.00
24154;BME280;12312;53.362;-1.518;2023-04-23T04:39:36;97612.56;;;8.75;100.00
24154;BME280;12312;53.362;-1.518;2023-04-23T04:42:20;97617.44;;;8.98;100.00
24154;BME280;12312;53.362;-1.518;2023-04-23T04:45:04;97619.13;;;8.80;100.00
24154;BME280;12312;53.362;-1.518;2023-04-23T04:47:48;97611.84;;;8.92;100.00
24154;BME280;12312;53.362;-1.518;2023-04-23T04:50:33;97615.50;;;8.81;100.00
24154;BME280;12312;53.362;-1.518;2023-04-23T04:53:17;97616.34;;;8.91;100.00
24154;BME280;12312;53.362;-1.518;2023-04-23T04:56:01;97621.09;;;8.97;100.00
24154;BME280;12312;53.362;-1.518;2023-04-23T04:58:45;97617.47;;;8.79;100.00
24154;BME280;12312;53.362;-1.518;2023-04-23T05:01:29;97622.19;;;8.66;100.00
24154;BME280;12312;53.362;-1.518;2023-04-23T05:04:14;97620.09;;;8.60;100.00
24154;BME280;12312;53.362;-1.518;2023-04-23T05:06:57;97616.88;;;8.57;100.00
24154;BME280;12312;53.362;-1.518;2023-04-23T05:09:41;97614.94;;;8.68;100.00
24154;BME280;12312;53.362;-1.518;2023-04-23T05:12:26;97616.69;;;8.30;100.00
24154;BME280;12312;53.362;-1.518;2023-04-23T05:15:11;97611.41;;;8.39;100.00
24154;BME280;12312;53.362;-1.518;2023-04-23T05:17:58;97609.28;;;8.24;100.00
24154;BME280;12312;53.362;-1.518;2023-04-23T05:20:42;97607.34;;;8.26;100.00
24154;BME280;12312;53.362;-1.518;2023-04-23T05:23:26;97612.81;;;8.34;100.00
24154;BME280;12312;53.362;-1.518;2023-04-23T05:26:10;97611.56;;;8.47;100.00
24154;BME280;12312;53.362;-1.518;2023-04-23T05:28:54;97616.88;;;8.47;100.00
24154;BME280;12312;53.362;-1.518;2023-04-23T05:31:38;97616.81;;;8.28;100.00
24154;BME280;12312;53.362;-1.518;2023-04-23T05:34:22;97614.44;;;8.25;100.00
24154;BME280;12312;53.362;-1.518;2023-04-23T05:37:06;97617.69;;;8.38;100.00
24154;BME280;12312;53.362;-1.518;2023-04-23T05:39:50;97614.25;;;8.17;100.00
24154;BME280;12312;53.362;-1.518;2023-04-23T05:42:35;97619.06;;;8.23;100.00
24154;BME280;12312;53.362;-1.518;2023-04-23T05:45:19;97614.88;;;8.30;100.00
24154;BME280;12312;53.362;-1.518;2023-04-23T05:48:03;97614.16;;;8.28;100.00
24154;BME280;12312;53.362;-1.518;2023-04-23T05:50:47;97619.00;;;8.14;100.00
24154;BME280;12312;53.362;-1.518;2023-04-23T05:53:32;97614.81;;;8.21;100.00
24154;BME280;12312;53.362;-1.518;2023-04-23T05:56:16;97610.28;;;8.02;100.00
24154;BME280;12312;53.362;-1.518;2023-04-23T05:59:00;97614.50;;;8.14;100.00
24154;BME280;12312;53.362;-1.518;2023-04-23T06:01:44;97612.56;;;8.16;100.00
24154;BME280;12312;53.362;-1.518;2023-04-23T06:04:28;97619.22;;;8.01;100.00
24154;BME280;12312;53.362;-1.518;2023-04-23T06:07:12;97620.97;;;8.21;100.00
24154;BME280;12312;53.362;-1.518;2023-04-23T06:09:58;97617.81;;;8.27;100.00
24154;BME280;12312;53.362;-1.518;2023-04-23T06:12:42;97611.44;;;8.09;100.00
24154;BME280;12312;53.362;-1.518;2023-04-23T06:15:26;97620.09;;;8.11;100.00
24154;BME280;12312;53.362;-1.518;2023-04-23T06:18:10;97613.56;;;8.15;100.00
24154;BME280;12312;53.362;-1.518;2023-04-23T06:20:54;97612.78;;;8.24;100.00
24154;BME280;12312;53.362;-1.518;2023-04-23T06:23:39;97619.53;;;8.17;100.00
24154;BME280;12312;53.362;-1.518;2023-04-23T06:26:23;97613.97;;;8.20;100.00
24154;BME280;12312;53.362;-1.518;2023-04-23T06:29:07;97617.03;;;8.16;100.00
24154;BME280;12312;53.362;-1.518;2023-04-23T06:31:54;97625.75;;;8.27;100.00
24154;BME280;12312;53.362;-1.518;2023-04-23T06:34:39;97625.91;;;8.05;100.00
24154;BME280;12312;53.362;-1.518;2023-04-23T06:37:23;97614.50;;;8.14;100.00
24154;BME280;12312;53.362;-1.518;2023-04-23T06:40:09;97617.88;;;8.16;100.00
24154;BME280;12312;53.362;-1.518;2023-04-23T06:42:54;97623.19;;;8.16;100.00
24154;BME280;12312;53.362;-1.518;2023-04-23T06:45:38;97614.78;;;8.11;100.00
24154;BME280;12312;53.362;-1.518;2023-04-23T06:48:23;97623.44;;;8.13;100.00
24154;BME280;12312;53.362;-1.518;2023-04-23T06:51:08;97613.38;;;8.07;100.00
24154;BME280;12312;53.362;-1.518;2023-04-23T06:53:52;97615.50;;;8.13;100.00
24154;BME280;12312;53.362;-1.518;2023-04-23T06:56:36;97616.13;;;8.26;100.00
24154;BME280;12312;53.362;-1.518;2023-04-23T06:59:20;97611.78;;;8.25;100.00
24154;BME280;12312;53.362;-1.518;2023-04-23T07:02:04;97615.09;;;8.18;100.00
24154;BME280;12312;53.362;-1.518;2023-04-23T07:04:48;97617.94;;;8.26;100.00
24154;BME280;12312;53.362;-1.518;2023-04-23T07:07:32;97616.88;;;8.17;100.00
24154;BME280;12312;53.362;-1.518;2023-04-23T07:10:19;97615.44;;;8.24;100.00
24154;BME280;12312;53.362;-1.518;2023-04-23T07:13:03;97617.09;;;8.25;100.00
24154;BME280;12312;53.362;-1.518;2023-04-23T07:15:47;97621.03;;;8.01;100.00
24154;BME280;12312;53.362;-1.518;2023-04-23T07:18:31;97616.06;;;8.17;100.00
24154;BME280;12312;53.362;-1.518;2023-04-23T07:21:16;97623.09;;;8.27;100.00
24154;BME280;12312;53.362;-1.518;2023-04-23T07:23:59;97615.31;;;8.35;100.00
24154;BME280;12312;53.362;-1.518;2023-04-23T07:26:49;97614.31;;;8.27;100.00
24154;BME280;12312;53.362;-1.518;2023-04-23T07:29:33;97616.00;;;8.37;100.00
24154;BME280;12312;53.362;-1.518;2023-04-23T07:32:17;97621.03;;;8.31;100.00
24154;BME280;12312;53.362;-1.518;2023-04-23T07:35:01;97614.88;;;8.30;100.00
24154;BME280;12312;53.362;-1.518;2023-04-23T07:37:45;97626.25;;;8.21;100.00
24154;BME280;12312;53.362;-1.518;2023-04-23T07:40:29;97625.22;;;8.33;100.00
24154;BME280;12312;53.362;-1.518;2023-04-23T07:43:13;97625.78;;;8.37;100.00
24154;BME280;12312;53.362;-1.518;2023-04-23T07:45:57;97628.41;;;8.27;100.00
24154;BME280;12312;53.362;-1.518;2023-04-23T07:48:41;97632.19;;;8.34;100.00
24154;BME280;12312;53.362;-1.518;2023-04-23T07:51:25;97628.53;;;8.26;100.00
24154;BME280;12312;53.362;-1.518;2023-04-23T07:54:10;97636.94;;;8.31;100.00
24154;BME280;12312;53.362;-1.518;2023-04-23T07:56:54;97622.91;;;8.19;100.00
24154;BME280;12312;53.362;-1.518;2023-04-23T07:59:40;97625.09;;;8.14;100.00
24154;BME280;12312;53.362;-1.518;2023-04-23T08:02:23;97628.53;;;8.26;100.00
24154;BME280;12312;53.362;-1.518;2023-04-23T08:05:09;97635.44;;;8.17;100.00
24154;BME280;12312;53.362;-1.518;2023-04-23T08:07:53;97631.34;;;8.04;100.00
24154;BME280;12312;53.362;-1.518;2023-04-23T08:10:37;97626.03;;;8.24;100.00
24154;BME280;12312;53.362;-1.518;2023-04-23T08:13:21;97628.03;;;8.41;100.00
24154;BME280;12312;53.362;-1.518;2023-04-23T08:16:06;97629.38;;;8.26;100.00
24154;BME280;12312;53.362;-1.518;2023-04-23T08:18:50;97636.66;;;8.34;100.00
24154;BME280;12312;53.362;-1.518;2023-04-23T08:21:34;97635.78;;;8.24;100.00
24154;BME280;12312;53.362;-1.518;2023-04-23T08:24:18;97642.63;;;8.36;100.00
24154;BME280;12312;53.362;-1.518;2023-04-23T08:27:03;97638.19;;;8.36;100.00
24154;BME280;12312;53.362;-1.518;2023-04-23T08:29:46;97644.50;;;8.54;100.00
24154;BME280;12312;53.362;-1.518;2023-04-23T08:32:31;97643.66;;;8.44;100.00
24154;BME280;12312;53.362;-1.518;2023-04-23T08:35:15;97645.44;;;8.34;100.00
24154;BME280;12312;53.362;-1.518;2023-04-23T08:37:59;97652.75;;;8.61;100.00
24154;BME280;12312;53.362;-1.518;2023-04-23T08:40:45;97651.22;;;8.77;100.00
24154;BME280;12312;53.362;-1.518;2023-04-23T08:44:23;97664.91;;;9.01;100.00
24154;BME280;12312;53.362;-1.518;2023-04-23T08:47:10;97657.22;;;8.89;100.00
24154;BME280;12312;53.362;-1.518;2023-04-23T08:49:58;97662.28;;;8.82;100.00
24154;BME280;12312;53.362;-1.518;2023-04-23T08:52:48;97665.75;;;8.73;100.00
24154;BME280;12312;53.362;-1.518;2023-04-23T08:55:34;97668.41;;;8.73;100.00
24154;BME280;12312;53.362;-1.518;2023-04-23T08:58:19;97670.06;;;8.74;100.00
24154;BME280;12312;53.362;-1.518;2023-04-23T09:01:03;97667.41;;;8.65;100.00
24154;BME280;12312;53.362;-1.518;2023-04-23T09:03:48;97670.66;;;8.78;100.00
24154;BME280;12312;53.362;-1.518;2023-04-23T09:06:33;97671.19;;;8.62;100.00
24154;BME280;12312;53.362;-1.518;2023-04-23T09:09:19;97669.41;;;8.91;100.00
24154;BME280;12312;53.362;-1.518;2023-04-23T09:12:07;97660.56;;;8.72;100.00
24154;BME280;12312;53.362;-1.518;2023-04-23T09:14:51;97656.81;;;8.93;100.00
24154;BME280;12312;53.362;-1.518;2023-04-23T09:17:41;97661.44;;;8.82;100.00
24154;BME280;12312;53.362;-1.518;2023-04-23T09:20:26;97662.94;;;8.65;100.00
24154;BME280;12312;53.362;-1.518;2023-04-23T09:23:13;97662.41;;;8.90;100.00
24154;BME280;12312;53.362;-1.518;2023-04-23T09:25:57;97660.56;;;8.81;100.00
24154;BME280;12312;53.362;-1.518;2023-04-23T09:28:41;97665.19;;;8.89;100.00
24154;BME280;12312;53.362;-1.518;2023-04-23T09:31:26;97656.81;;;8.93;100.00
24154;BME280;12312;53.362;-1.518;2023-04-23T09:34:10;97659.88;;;9.18;100.00
24154;BME280;12312;53.362;-1.518;2023-04-23T09:36:55;97661.84;;;9.16;100.00
24154;BME280;12312;53.362;-1.518;2023-04-23T09:39:39;97654.31;;;9.11;100.00
24154;BME280;12312;53.362;-1.518;2023-04-23T09:42:23;97649.84;;;8.92;100.00
24154;BME280;12312;53.362;-1.518;2023-04-23T09:45:11;97642.59;;;8.94;100.00
24154;BME280;12312;53.362;-1.518;2023-04-23T09:47:56;97647.88;;;9.14;100.00
24154;BME280;12312;53.362;-1.518;2023-04-23T09:50:40;97642.56;;;9.14;100.00
24154;BME280;12312;53.362;-1.518;2023-04-23T09:53:25;97647.72;;;9.05;100.00
24154;BME280;12312;53.362;-1.518;2023-04-23T09:56:09;97647.31;;;9.20;100.00
24154;BME280;12312;53.362;-1.518;2023-04-23T09:58:53;97657.94;;;9.20;100.00
24154;BME280;12312;53.362;-1.518;2023-04-23T10:01:43;97660.69;;;9.47;100.00
24154;BME280;12312;53.362;-1.518;2023-04-23T10:04:28;97665.19;;;9.37;100.00
24154;BME280;12312;53.362;-1.518;2023-04-23T10:07:13;97667.34;;;9.70;100.00
24154;BME280;12312;53.362;-1.518;2023-04-23T10:09:57;97677.22;;;9.22;100.00
24154;BME280;12312;53.362;-1.518;2023-04-23T10:12:42;97678.59;;;9.26;100.00
24154;BME280;12312;53.362;-1.518;2023-04-23T10:15:26;97691.88;;;9.26;100.00
24154;BME280;12312;53.362;-1.518;2023-04-23T10:18:13;97685.84;;;9.43;100.00
24154;BME280;12312;53.362;-1.518;2023-04-23T10:20:57;97684.34;;;9.21;100.00
24154;BME280;12312;53.362;-1.518;2023-04-23T10:23:43;97693.69;;;9.16;100.00
24154;BME280;12312;53.362;-1.518;2023-04-23T10:26:30;97680.25;;;9.36;100.00
24154;BME280;12312;53.362;-1.518;2023-04-23T10:29:15;97676.91;;;9.44;100.00
24154;BME280;12312;53.362;-1.518;2023-04-23T10:32:02;97683.34;;;9.51;100.00
24154;BME280;12312;53.362;-1.518;2023-04-23T10:34:46;97682.78;;;9.47;100.00
24154;BME280;12312;53.362;-1.518;2023-04-23T10:37:31;97680.50;;;9.62;100.00
24154;BME280;12312;53.362;-1.518;2023-04-23T10:40:19;97682.56;;;10.33;100.00
24154;BME280;12312;53.362;-1.518;2023-04-23T10:43:05;97681.81;;;10.04;100.00
24154;BME280;12312;53.362;-1.518;2023-04-23T10:45:49;97682.41;;;9.88;100.00
24154;BME280;12312;53.362;-1.518;2023-04-23T10:49:07;97689.94;;;9.93;100.00
24154;BME280;12312;53.362;-1.518;2023-04-23T10:52:00;97696.72;;;9.68;100.00
24154;BME280;12312;53.362;-1.518;2023-04-23T10:54:49;97688.03;;;9.76;100.00
24154;BME280;12312;53.362;-1.518;2023-04-23T11:00:43;97689.47;;;9.61;100.00
24154;BME280;12312;53.362;-1.518;2023-04-23T11:03:36;97689.16;;;9.83;100.00
24154;BME280;12312;53.362;-1.518;2023-04-23T11:06:50;97689.44;;;9.80;100.00
24154;BME280;12312;53.362;-1.518;2023-04-23T11:09:41;97691.41;;;9.78;100.00
24154;BME280;12312;53.362;-1.518;2023-04-23T11:15:15;97696.72;;;9.78;100.00
24154;BME280;12312;53.362;-1.518;2023-04-23T11:18:01;97692.69;;;9.55;100.00
24154;BME280;12312;53.362;-1.518;2023-04-23T11:20:46;97692.09;;;9.80;100.00
24154;BME280;12312;53.362;-1.518;2023-04-23T11:23:33;97690.31;;;9.61;100.00
24154;BME280;12312;53.362;-1.518;2023-04-23T11:26:17;97690.31;;;9.52;100.00
24154;BME280;12312;53.362;-1.518;2023-04-23T11:29:02;97689.84;;;9.75;100.00
24154;BME280;12312;53.362;-1.518;2023-04-23T11:31:47;97697.78;;;9.94;100.00
24154;BME280;12312;53.362;-1.518;2023-04-23T11:34:32;97692.19;;;9.88;100.00
24154;BME280;12312;53.362;-1.518;2023-04-23T11:37:17;97686.81;;;10.16;100.00
24154;BME280;12312;53.362;-1.518;2023-04-23T11:40:05;97695.63;;;10.17;100.00
24154;BME280;12312;53.362;-1.518;2023-04-23T11:42:53;97694.50;;;10.19;100.00
24154;BME280;12312;53.362;-1.518;2023-04-23T11:45:40;97701.06;;;10.25;100.00
24154;BME280;12312;53.362;-1.518;2023-04-23T11:48:24;97700.53;;;10.12;100.00
24154;BME280;12312;53.362;-1.518;2023-04-23T11:51:08;97706.13;;;10.18;100.00
24154;BME280;12312;53.362;-1.518;2023-04-23T11:53:52;97711.16;;;10.12;100.00
24154;BME280;12312;53.362;-1.518;2023-04-23T11:56:36;97707.25;;;10.16;100.00
24154;BME280;12312;53.362;-1.518;2023-04-23T11:59:21;97719.56;;;10.07;100.00
24154;BME280;12312;53.362;-1.518;2023-04-23T12:02:05;97716.22;;;9.96;100.00
24154;BME280;12312;53.362;-1.518;2023-04-23T12:04:49;97720.16;;;9.92;100.00
24154;BME280;12312;53.362;-1.518;2023-04-23T12:07:34;97723.78;;;9.91;100.00
24154;BME280;12312;53.362;-1.518;2023-04-23T12:10:20;97724.94;;;9.79;100.00
24154;BME280;12312;53.362;-1.518;2023-04-23T12:13:04;97723.13;;;9.70;100.00
24154;BME280;12312;53.362;-1.518;2023-04-23T12:15:51;97726.06;;;9.67;100.00
24154;BME280;12312;53.362;-1.518;2023-04-23T12:18:39;97734.47;;;9.62;100.00
24154;BME280;12312;53.362;-1.518;2023-04-23T12:21:25;97734.34;;;9.54;100.00
24154;BME280;12312;53.362;-1.518;2023-04-23T12:24:11;97735.88;;;9.57;100.00
24154;BME280;12312;53.362;-1.518;2023-04-23T12:26:57;97737.84;;;9.55;100.00
24154;BME280;12312;53.362;-1.518;2023-04-23T12:29:44;97736.44;;;9.32;100.00
24154;BME280;12312;53.362;-1.518;2023-04-23T12:32:32;97742.16;;;9.18;100.00
24154;BME280;12312;53.362;-1.518;2023-04-23T12:35:16;97744.53;;;9.01;100.00
24154;BME280;12312;53.362;-1.518;2023-04-23T12:38:00;97742.56;;;9.03;100.00
24154;BME280;12312;53.362;-1.518;2023-04-23T12:40:47;97740.59;;;9.05;100.00
24154;BME280;12312;53.362;-1.518;2023-04-23T12:43:31;97748.84;;;9.02;100.00
24154;BME280;12312;53.362;-1.518;2023-04-23T12:46:15;97744.53;;;9.01;100.00
24154;BME280;12312;53.362;-1.518;2023-04-23T12:48:59;97748.44;;;9.07;100.00
24154;BME280;12312;53.362;-1.518;2023-04-23T12:51:43;97752.34;;;9.03;100.00
24154;BME280;12312;53.362;-1.518;2023-04-23T12:54:29;97747.19;;;9.21;100.00
24154;BME280;12312;53.362;-1.518;2023-04-23T12:57:14;97753.19;;;9.13;100.00
24154;BME280;12312;53.362;-1.518;2023-04-23T12:59:58;97749.69;;;9.22;100.00
24154;BME280;12312;53.362;-1.518;2023-04-23T13:02:42;97753.22;;;9.32;100.00
24154;BME280;12312;53.362;-1.518;2023-04-23T13:05:26;97754.88;;;9.14;100.00
24154;BME280;12312;53.362;-1.518;2023-04-23T13:08:10;97746.78;;;9.16;100.00
24154;BME280;12312;53.362;-1.518;2023-04-23T13:10:54;97758.38;;;9.24;100.00
24154;BME280;12312;53.362;-1.518;2023-04-23T13:13:38;97752.38;;;9.32;100.00
24154;BME280;12312;53.362;-1.518;2023-04-23T13:16:22;97757.13;;;9.19;100.00
24154;BME280;12312;53.362;-1.518;2023-04-23T13:19:07;97762.28;;;9.20;100.00
24154;BME280;12312;53.362;-1.518;2023-04-23T13:21:51;97757.94;;;9.29;100.00
24154;BME280;12312;53.362;-1.518;2023-04-23T13:24:36;97763.97;;;9.31;100.00
24154;BME280;12312;53.362;-1.518;2023-04-23T13:27:20;97762.44;;;9.28;100.00
24154;BME280;12312;53.362;-1.518;2023-04-23T13:30:04;97758.66;;;9.31;100.00
24154;BME280;12312;53.362;-1.518;2023-04-23T13:32:49;97766.63;;;9.40;100.00
24154;BME280;12312;53.362;-1.518;2023-04-23T13:35:34;97767.31;;;9.52;100.00
24154;BME280;12312;53.362;-1.518;2023-04-23T13:38:20;97777.25;;;9.50;100.00
24154;BME280;12312;53.362;-1.518;2023-04-23T13:41:04;97768.03;;;9.54;100.00
24154;BME280;12312;53.362;-1.518;2023-04-23T13:43:48;97766.91;;;9.66;100.00
24154;BME280;12312;53.362;-1.518;2023-04-23T13:46:32;97773.34;;;9.54;100.00
24154;BME280;12312;53.362;-1.518;2023-04-23T13:49:17;97765.78;;;9.40;100.00
24154;BME280;12312;53.362;-1.518;2023-04-23T13:52:01;97757.94;;;9.57;100.00
24154;BME280;12312;53.362;-1.518;2023-04-23T13:54:49;97758.53;;;9.42;100.00
24154;BME280;12312;53.362;-1.518;2023-04-23T13:57:35;97760.03;;;9.92;100.00
24154;BME280;12312;53.362;-1.518;2023-04-23T14:00:21;97757.09;;;9.95;100.00
24154;BME280;12312;53.362;-1.518;2023-04-23T14:03:05;97752.22;;;9.71;100.00
24154;BME280;12312;53.362;-1.518;2023-04-23T14:05:48;97749.31;;;9.55;100.00
24154;BME280;12312;53.362;-1.518;2023-04-23T14:08:32;97752.94;;;9.45;100.00
24154;BME280;12312;53.362;-1.518;2023-04-23T14:11:20;97757.25;;;9.65;100.00
24154;BME280;12312;53.362;-1.518;2023-04-23T14:14:05;97749.28;;;9.74;100.00
24154;BME280;12312;53.362;-1.518;2023-04-23T14:16:53;97756.25;;;9.85;100.00
24154;BME280;12312;53.362;-1.518;2023-04-23T14:19:37;97758.47;;;9.89;100.00
24154;BME280;12312;53.362;-1.518;2023-04-23T14:22:21;97751.19;;;10.10;100.00
24154;BME280;12312;53.362;-1.518;2023-04-23T14:25:13;97760.13;;;10.19;100.00
24154;BME280;12312;53.362;-1.518;2023-04-23T14:28:01;97754.53;;;10.03;100.00
24154;BME280;12312;53.362;-1.518;2023-04-23T14:30:46;97749.50;;;10.00;100.00